Flight Track Log - Related Links

Times and Time Zones

All times are in EDT time to prevent confusion due to time zone crossing. See the G-VIIS flight status page for this flight to view local times or setup timezone preferences in your user account.

Time Position Orientation Groundspeed Altitude Reporting Facility
EDT Latitude Longitude Course Direction KTS MPH feet Rate Location/Type
Mon 11:14:32 AM 51.4770 -0.5120 268° West 178 205 1,500  Level FlightAware ADS-B
Mon 11:14:48 AM 51.4757 -0.5423 266° West 196 226 1,900 1,200 Climbing FlightAware ADS-B
Mon 11:14:52 AM 51.4750 -0.5475 258° West 204 235 1,900 1,000 Level FlightAware ADS-B
Mon 11:15:06 AM 51.4716 -0.5692 256° West 219 252 2,200 1,385 Climbing FlightAware ADS-B
Mon 11:15:18 AM 51.4683 -0.5893 255° West 232 267 2,500 1,929 Climbing FlightAware ADS-B
Mon 11:15:34 AM 51.4640 -0.6155 255° West 236 272 3,100 2,538 Climbing FlightAware ADS-B
Mon 11:15:44 AM 51.4608 -0.6333 254° West 237 273 3,600 2,667 Climbing FlightAware ADS-B
Mon 11:15:52 AM 51.4568 -0.6458 243° Southwest 239 275 3,900 2,308 Climbing FlightAware ADS-B
Mon 11:15:57 AM 51.4534 -0.6529 232° Southwest 244 281 4,100 2,000 Climbing FlightAware ADS-B
Mon 11:16:01 AM 51.4505 -0.6576 225° Southwest 245 282 4,200 2,000 Climbing FlightAware ADS-B
Mon 11:16:09 AM 51.4437 -0.6678 223° Southwest 248 285 4,500 2,348 Climbing FlightAware ADS-B
Mon 11:16:24 AM 51.4311 -0.6866 223° Southwest 248 285 5,100 2,400 Climbing FlightAware ADS-B
Mon 11:16:39 AM 51.4181 -0.7061 223° Southwest 253 291 5,700 2,323 Climbing FlightAware ADS-B
Mon 11:16:55 AM 51.4047 -0.7258 223° Southwest 259 298 6,300 1,742 Climbing FlightAware ADS-B
Mon 11:17:10 AM 51.3907 -0.7460 222° Southwest 271 312 6,600 1,548 Climbing FlightAware ADS-B
Mon 11:17:26 AM 51.3760 -0.7668 222° Southwest 279 321 7,100 1,875 Climbing FlightAware ADS-B
Mon 11:17:42 AM 51.3602 -0.7886 221° Southwest 284 327 7,600 2,129 Climbing FlightAware ADS-B
Mon 11:17:57 AM 51.3450 -0.8095 221° Southwest 286 329 8,200 2,200 Climbing FlightAware ADS-B
Mon 11:18:12 AM 51.3298 -0.8306 221° Southwest 289 333 8,700 2,200 Climbing FlightAware ADS-B
Mon 11:18:27 AM 51.3143 -0.8519 221° Southwest 291 335 9,300 2,129 Climbing FlightAware ADS-B
Mon 11:18:43 AM 51.2981 -0.8742 221° Southwest 294 338 9,800 1,660 Climbing FlightAware ADS-B
Mon 11:19:14 AM 51.2661 -0.9185 221° Southwest 312 359 10,600 1,180 Climbing FlightAware ADS-B
Mon 11:19:44 AM 51.2316 -0.9663 221° Southwest 341 392 11,000 -1,125 Climbing FlightAware ADS-B
Mon 11:20:02 AM 51.2088 -0.9979 221° Southwest 350 403 9,700 1,200 Descending FlightAware UK
Mon 11:20:14 AM 51.1946 -1.0173 221° Southwest 360 414 11,600 6,000 Climbing FlightAware ADS-B
Mon 11:20:25 AM 51.1806 -1.0379 223° Southwest 361 415 12,000 2,211 Climbing FlightAware ADS-B
Mon 11:20:33 AM 51.1730 -1.0524 230° Southwest 355 409 12,300 -240 Climbing FlightAware ADS-B
Mon 11:20:50 AM 51.1568 -1.0909 230° Southwest 340 391 11,900 3,800 Descending FlightAware UK
Mon 11:21:03 AM 51.1471 -1.1157 230° Southwest 327 376 14,200 5,167 Climbing FlightAware ADS-B
Mon 11:21:26 AM 51.1289 -1.1614 238° Southwest 328 377 15,000 1,889 Climbing FlightAware ADS-B
Mon 11:21:57 AM 51.1030 -1.2257 237° Southwest 332 382 15,900  Climbing FlightAware ADS-B
Mon 11:22:14 AM 51.0886 -1.2619 237° Southwest 336 387 15,000 1,600 Descending FlightAware UK
Mon 11:22:27 AM 51.0778 -1.2888 237° Southwest 343 395 16,700 600 Climbing FlightAware ADS-B
Mon 11:22:44 AM 51.0629 -1.3259 237° Southwest 356 410 15,300 706 Descending FlightAware UK
Mon 11:23:01 AM 51.0483 -1.3628 237° Southwest 367 422 17,100 714 Climbing FlightAware ADS-B
Mon 11:23:26 AM 51.0249 -1.4222 237° Southwest 382 440 15,800 774 Descending FlightAware UK
Mon 11:23:32 AM 51.0201 -1.4348 237° Southwest 385 443 17,500 1,750 Climbing FlightAware ADS-B
Mon 11:23:50 AM 51.0023 -1.4800 237° Southwest 392 451 16,500 1,548 Descending FlightAware UK
Mon 11:24:03 AM 50.9902 -1.5111 237° Southwest 392 451 18,300 1,333 Climbing FlightAware ADS-B
Mon 11:24:26 AM 50.9679 -1.5682 237° Southwest 396 456 17,300 1,500 Descending FlightAware UK
Mon 11:24:35 AM 50.9594 -1.5900 237° Southwest 399 459 19,100 1,400 Climbing FlightAware ADS-B
Mon 11:24:56 AM 50.9386 -1.6430 237° Southwest 402 463 18,000 1,548 Descending FlightAware UK
Mon 11:25:06 AM 50.9283 -1.6669 237° Southwest 406 467 19,900 3,805 Climbing FlightAware ADS-B
Mon 11:25:37 AM 50.8967 -1.7433 237° Southwest 411 473 20,600 1,355 Climbing FlightAware ADS-B
Mon 11:26:08 AM 50.8624 -1.8220 235° Southwest 417 480 21,300 -490 Climbing FlightAware ADS-B
Mon 11:26:26 AM 50.8441 -1.8671 235° Southwest 416 479 20,200 1,333 Descending FlightAware UK
Mon 11:26:35 AM 50.8369 -1.8934 235° Southwest 412 474 21,900 1,250 Climbing FlightAware ADS-B
Mon 11:26:50 AM 50.8259 -1.9339 235° Southwest 418 481 20,700 1,500 Descending FlightAware UK
Mon 11:26:59 AM 50.8208 -1.9598 235° Southwest 409 471 22,500 3,600 Climbing FlightAware ADS-B
Mon 11:27:30 AM 50.8065 -2.0474 256° West 410 472 23,100 -429 Climbing FlightAware ADS-B
Mon 11:27:55 AM 50.7945 -2.1234 256° West 426 490 22,100 1,313 Descending FlightAware UK
Mon 11:28:02 AM 50.7913 -2.1433 256° West 415 478 23,800 1,250 Climbing FlightAware ADS-B
Mon 11:28:19 AM 50.7834 -2.1939 256° West 432 497 22,600 1,371 Descending FlightAware UK
Mon 11:28:37 AM 50.7755 -2.2438 256° West 419 482 24,600 1,333 Climbing FlightAware ADS-B
Mon 11:28:55 AM 50.7665 -2.3010 256° West 436 502 23,400 1,273 Descending FlightAware UK
Mon 11:29:10 AM 50.7594 -2.3450 256° West 421 484 25,300 1,000 Climbing FlightAware ADS-B
Mon 11:29:31 AM 50.7493 -2.4080 256° West 444 511 24,000 563 Descending FlightAware UK
Mon 11:29:42 AM 50.7470 -2.4210 256° West 426 490 25,600 5,368 Climbing FlightAware ADS-B
Mon 11:29:50 AM 50.7401 -2.4648 256° West 428 493 25,700 300 Climbing FlightAware ADS-B
Mon 11:30:22 AM 50.7270 -2.5460 256° West 425 489 25,800 158 Climbing FlightAware ADS-B
Mon 11:30:28 AM 50.7216 -2.5788 255° West 427 491 25,800 -2,889 Level FlightAware ADS-B
Mon 11:30:49 AM 50.7112 -2.6436 255° West 444 511 24,500 769 Descending FlightAware UK
Mon 11:31:07 AM 50.7050 -2.6810 255° West 425 489 26,300 2,690 Climbing FlightAware ADS-B
Mon 11:31:47 AM 50.6850 -2.8040 256° West 430 495 27,100 -300 Climbing FlightAware ADS-B
Mon 11:32:07 AM 50.6739 -2.8792 256° West 452 520 26,000 1,067 Descending FlightAware UK
Mon 11:32:32 AM 50.6710 -2.9390 256° West 430 495 27,900 1,143 Climbing FlightAware ADS-B
Mon 11:32:49 AM 50.6670 -3.0099 256° West 460 529 26,800 -1,371 Descending FlightAware UK
Mon 11:33:07 AM 50.6638 -3.0662 265° West 462 532 27,100 4,696 Climbing FlightAware UK
Mon 11:33:12 AM 50.6640 -3.0650 265° West 434 499 28,600 3,600 Climbing FlightAware ADS-B
Mon 11:33:42 AM 50.6572 -3.1758 265° West 436 502 29,200 -735 Climbing FlightAware ADS-B
Mon 11:34:01 AM 50.6537 -3.2365 265° West 466 536 28,000 -857 Descending FlightAware UK
Mon 11:34:31 AM 50.6476 -3.3312 264° West 468 539 28,500 3,333 Climbing FlightAware UK
Mon 11:34:37 AM 50.6470 -3.3350 264° West 441 507 30,000 7,500 Climbing FlightAware ADS-B
Mon 11:34:43 AM 50.6454 -3.3714 266° West 444 511 30,000 -3,750 Level FlightAware ADS-B
Mon 11:35:01 AM 50.6420 -3.4287 266° West 480 552 28,500  Descending FlightAware UK
Mon 11:35:17 AM 50.6390 -3.4730 266° West 459 528 30,000 3,600 Climbing FlightAware ADS-B
Mon 11:35:26 AM 50.6371 -3.5133 266° West 461 531 30,000 -3,462 Level FlightAware ADS-B
Mon 11:35:43 AM 50.6337 -3.5691 266° West 492 566 28,500  Descending FlightAware UK
Mon 11:35:57 AM 50.6314 -3.6168 266° West 466 536 30,000 1,915 Climbing FlightAware ADS-B
Mon 11:36:30 AM 50.6254 -3.7273 265° West 466 536 30,000 -1,731 Level FlightAware ADS-B
Mon 11:36:49 AM 50.6217 -3.7915 265° West 496 571 28,500  Descending FlightAware UK
Mon 11:37:08 AM 50.6183 -3.8549 265° West 468 539 30,000  Climbing FlightAware ADS-B
Mon 11:37:25 AM 50.6150 -3.9130 265° West 496 571 28,500  Descending FlightAware UK
Mon 11:37:45 AM 50.6118 -3.9822 265° West 468 539 30,000  Climbing FlightAware ADS-B
Mon 11:38:00 AM 50.6090 -4.0343 265° West 496 571 28,500 -2,727 Descending FlightAware UK
Mon 11:38:18 AM 50.6059 -4.0953 266° West 496 571 28,500  Level FlightAware UK
Mon 11:38:36 AM 50.6028 -4.1560 265° West 496 571 28,500 3,103 Level FlightAware UK
Mon 11:38:47 AM 50.6020 -4.1800 265° West 465 535 30,000  Climbing FlightAware ADS-B
Mon 11:39:06 AM 50.5976 -4.2571 265° West 498 573 28,500  Descending FlightAware UK
Mon 11:39:28 AM 50.5940 -4.3278 265° West 465 535 30,000  Climbing FlightAware ADS-B
Mon 11:39:48 AM 50.5902 -4.3982 265° West 496 571 28,500 -2,368 Descending FlightAware UK
Mon 11:40:06 AM 50.5872 -4.4585 266° West 494 568 28,500 4,737 Level FlightAware UK
Mon 11:40:07 AM 50.5880 -4.4490 266° West 465 535 30,000  Climbing FlightAware ADS-B
Mon 11:40:24 AM 50.5843 -4.5190 266° West 494 568 28,500  Descending FlightAware UK
Mon 11:40:36 AM 50.5812 -4.5558 266° West 469 540 30,000  Climbing FlightAware ADS-B
Mon 11:40:54 AM 50.5736 -4.6198 266° West 496 571 28,500 -2,500 Descending FlightAware UK
Mon 11:41:12 AM 50.5642 -4.6795 256° West 496 571 28,500 2,093 Level FlightAware UK
Mon 11:41:37 AM 50.5490 -4.7550 256° West 474 545 30,000  Climbing FlightAware ADS-B
Mon 11:41:54 AM 50.5364 -4.8172 256° West 494 568 28,500 -2,571 Descending FlightAware UK
Mon 11:42:12 AM 50.5248 -4.8764 253° West 494 568 28,500 3,913 Level FlightAware UK
Mon 11:42:17 AM 50.5230 -4.8870 253° West 475 547 30,000  Climbing FlightAware ADS-B
Mon 11:42:36 AM 50.5092 -4.9544 253° West 494 568 28,500 -2,432 Descending FlightAware UK
Mon 11:42:54 AM 50.4973 -5.0136 252° West 494 568 28,500 4,286 Level FlightAware UK
Mon 11:42:57 AM 50.4960 -5.0170 252° West 476 548 30,000  Climbing FlightAware ADS-B
Mon 11:43:18 AM 50.4813 -5.0923 252° West 494 568 28,500  Descending FlightAware UK
Mon 11:43:42 AM 50.4670 -5.1620 252° West 476 548 30,000  Climbing FlightAware ADS-B
Mon 11:44:00 AM 50.4530 -5.2301 252° West 496 571 28,500  Descending FlightAware UK
Mon 11:44:22 AM 50.4400 -5.2940 252° West 475 547 30,000  Climbing FlightAware ADS-B
Mon 11:44:42 AM 50.4249 -5.3678 252° West 494 568 28,500  Descending FlightAware UK
Mon 11:45:02 AM 50.4130 -5.4250 252° West 476 548 30,000  Climbing FlightAware ADS-B
Mon 11:45:18 AM 50.4002 -5.4855 252° West 496 571 28,500 -2,250 Descending FlightAware UK
Mon 11:45:42 AM 50.3837 -5.5637 252° West 496 571 28,500 3,103 Level FlightAware UK
Mon 11:45:47 AM 50.3820 -5.5750 252° West 475 547 30,000  Climbing FlightAware ADS-B
Mon 11:46:06 AM 50.3673 -5.6420 252° West 496 571 28,500 -2,432 Descending FlightAware UK
Mon 11:46:24 AM 50.3549 -5.7007 252° West 496 571 28,500 4,286 Level FlightAware UK
Mon 11:46:27 AM 50.3550 -5.7020 252° West 474 545 30,000  Climbing FlightAware ADS-B
Mon 11:46:42 AM 50.3425 -5.7592 252° West 498 573 28,500 -2,727 Descending FlightAware UK
Mon 11:47:00 AM 50.3303 -5.8177 252° West 496 571 28,500 3,000 Level FlightAware UK
Mon 11:47:12 AM 50.3240 -5.8480 252° West 471 542 30,000  Climbing FlightAware ADS-B
Mon 11:47:30 AM 50.3099 -5.9150 252° West 496 571 28,500 -2,500 Descending FlightAware UK
Mon 11:47:48 AM 50.2980 -5.9726 252° West 494 568 28,500 4,091 Level FlightAware UK
Mon 11:47:52 AM 50.2970 -5.9790 252° West 472 543 30,000  Climbing FlightAware ADS-B
Mon 11:48:12 AM 50.2818 -6.0502 252° West 494 568 28,500 -2,368 Descending FlightAware UK
Mon 11:48:30 AM 50.2697 -6.1083 252° West 496 571 28,500 4,500 Level FlightAware UK
Mon 11:48:32 AM 50.2700 -6.1070 252° West 472 543 30,000  Climbing FlightAware ADS-B
Mon 11:48:54 AM 50.2533 -6.1858 252° West 496 571 28,500 -2,250 Descending FlightAware UK
Mon 11:49:12 AM 50.2410 -6.2439 252° West 496 571 28,500 3,913 Level FlightAware UK
Mon 11:49:17 AM 50.2400 -6.2490 252° West 471 542 30,000  Climbing FlightAware ADS-B
Mon 11:49:42 AM 50.2207 -6.3407 252° West 494 568 28,500  Descending FlightAware UK
Mon 11:49:57 AM 50.2120 -6.3790 252° West 472 543 30,000  Climbing FlightAware ADS-B
Mon 11:50:12 AM 50.1999 -6.4373 252° West 496 571 28,500 -2,727 Descending FlightAware UK
Mon 11:50:30 AM 50.1874 -6.4952 251° West 496 571 28,500 3,600 Level FlightAware UK
Mon 11:50:37 AM 50.1840 -6.5100 251° West 471 542 30,000  Climbing FlightAware ADS-B
Mon 11:51:00 AM 50.1665 -6.5917 251° West 496 571 28,500  Descending FlightAware UK
Mon 11:51:17 AM 50.1560 -6.6380 251° West 472 543 30,000  Climbing FlightAware ADS-B
Mon 11:51:18 AM 50.1540 -6.6496 251° West 496 571 28,500 -3,600 Descending FlightAware UK
Mon 11:51:42 AM 50.1372 -6.7267 251° West 496 571 28,500  Level FlightAware UK
Mon 11:52:00 AM 50.1247 -6.7846 251° West 496 571 28,500 4,500 Level FlightAware UK
Mon 11:52:02 AM 50.1250 -6.7810 251° West 472 543 30,000  Climbing FlightAware ADS-B
Mon 11:52:30 AM 50.1038 -6.8811 251° West 496 571 28,500  Descending FlightAware UK
Mon 11:52:47 AM 50.0930 -6.9320 251° West 472 543 30,000  Climbing FlightAware ADS-B
Mon 11:53:12 AM 50.0740 -7.0158 251° West 496 571 28,500  Descending FlightAware UK
Mon 11:53:32 AM 50.0610 -7.0730 251° West 472 543 30,000  Climbing FlightAware ADS-B
Mon 11:53:48 AM 50.0486 -7.1305 251° West 496 571 28,500 -2,647 Descending FlightAware UK
Mon 11:54:06 AM 50.0358 -7.1882 251° West 496 571 28,500 4,737 Level FlightAware UK
Mon 11:54:07 AM 50.0360 -7.1890 251° West 472 543 30,000  Climbing FlightAware ADS-B
Mon 11:54:24 AM 50.0230 -7.2458 251° West 496 571 28,500 -2,571 Descending FlightAware UK
Mon 11:54:42 AM 50.0102 -7.3035 251° West 496 571 28,500 3,214 Level FlightAware UK
Mon 11:54:52 AM 50.0050 -7.3280 251° West 472 543 30,000  Climbing FlightAware ADS-B
Mon 11:55:12 AM 49.9888 -7.3995 251° West 494 568 28,500 -2,368 Descending FlightAware UK
Mon 11:55:30 AM 49.9757 -7.4570 251° West 496 571 28,500 4,500 Level FlightAware UK
Mon 11:55:32 AM 49.9770 -7.4520 251° West 473 544 30,000  Climbing FlightAware ADS-B
Mon 11:55:54 AM 49.9584 -7.5337 251° West 496 571 28,500 -2,250 Descending FlightAware UK
Mon 11:56:12 AM 49.9454 -7.5912 251° West 496 571 28,500 3,913 Level FlightAware UK
Mon 11:56:17 AM 49.9450 -7.5950 251° West 471 542 30,000  Climbing FlightAware ADS-B
Mon 11:56:36 AM 49.9280 -7.6678 251° West 494 568 28,500 -2,432 Descending FlightAware UK
Mon 11:56:54 AM 49.9149 -7.7251 250° West 494 568 28,500 4,286 Level FlightAware UK
Mon 11:56:57 AM 49.9150 -7.7260 250° West 473 544 30,000  Climbing FlightAware ADS-B
Mon 11:57:12 AM 49.9018 -7.7824 250° West 494 568 28,500 -2,308 Descending FlightAware UK
Mon 11:57:36 AM 49.8844 -7.8590 251° West 492 566 28,500 3,000 Level FlightAware UK
Mon 11:57:42 AM 49.8810 -7.8720 251° West 475 547 30,000  Climbing FlightAware ADS-B
Mon 11:58:00 AM 49.8668 -7.9356 251° West 492 566 28,500 -2,500 Descending FlightAware UK
Mon 11:58:18 AM 49.8534 -7.9932 250° West 492 566 28,500 4,091 Level FlightAware UK
Mon 11:58:22 AM 49.8550 -7.9860 250° West 475 547 30,000  Climbing FlightAware ADS-B
Mon 11:58:42 AM 49.8356 -8.0705 250° West 494 568 28,500 -2,368 Descending FlightAware UK
Mon 11:59:00 AM 49.8222 -8.1281 250° West 494 568 28,500 3,600 Level FlightAware UK
Mon 11:59:07 AM 49.8200 -8.1390 250° West 480 552 30,000  Climbing FlightAware ADS-B
Mon 11:59:24 AM 49.8041 -8.2059 250° West 494 568 28,500 -2,571 Descending FlightAware UK
Mon 11:59:42 AM 49.7904 -8.2642 250° West 492 566 28,500 3,913 Level FlightAware UK
Mon 11:59:47 AM 49.7890 -8.2700 250° West 480 552 30,000  Climbing FlightAware ADS-B
Mon 12:00:06 PM 49.7723 -8.3420 250° West 494 568 28,500 -2,432 Descending FlightAware UK
Mon 12:00:24 PM 49.7586 -8.4002 250° West 494 568 28,500 4,286 Level FlightAware UK
Mon 12:00:27 PM 49.7580 -8.4030 250° West 482 555 30,000  Climbing FlightAware ADS-B
Mon 12:00:42 PM 49.7448 -8.4584 250° West 494 568 28,500 -2,727 Descending FlightAware UK
Mon 12:01:00 PM 49.7310 -8.5165 250° West 494 568 28,500 3,000 Level FlightAware UK
Mon 12:01:12 PM 49.7240 -8.5470 250° West 482 555 30,000  Climbing FlightAware ADS-B
Mon 12:01:30 PM 49.7081 -8.6134 250° West 494 568 28,500 -2,500 Descending FlightAware UK
Mon 12:01:48 PM 49.6942 -8.6714 250° West 494 568 28,500 4,091 Level FlightAware UK
Mon 12:01:52 PM 49.6930 -8.6790 250° West 482 555 30,000  Climbing FlightAware ADS-B
Mon 12:02:12 PM 49.6758 -8.7489 250° West 496 571 28,500  Descending FlightAware UK
Mon 12:02:37 PM 49.6570 -8.8270 250° West 483 556 30,000  Climbing FlightAware ADS-B
Mon 12:02:54 PM 49.6434 -8.8843 250° West 498 573 28,500  Descending FlightAware UK
Mon 12:03:17 PM 49.6260 -8.9550 250° West 479 551 30,000 1,429 Climbing FlightAware ADS-B
Mon 12:03:57 PM 49.5970 -9.0770 250° West 479 551 30,000  Level FlightAware ADS-B
Mon 12:04:42 PM 49.5610 -9.2220 249° West 477 549 30,000  Level FlightAware ADS-B
Mon 12:05:22 PM 49.5320 -9.3420 250° West 477 549 30,000  Level FlightAware ADS-B
Mon 12:06:07 PM 49.4960 -9.4890 249° West 477 549 30,000  Level FlightAware ADS-B
Mon 12:06:47 PM 49.4660 -9.6090 249° West 477 549 30,000  Level FlightAware ADS-B
Mon 12:07:27 PM 49.4390 -9.7170 249° West 477 549 30,000  Level FlightAware ADS-B
Mon 12:08:07 PM 49.4120 -9.8250 249° West 477 549 30,000  Level FlightAware ADS-B
Mon 12:08:57 PM 49.3790 -9.9590 249° West 477 549 30,000  Level FlightAware ADS-B
Mon 12:09:37 PM 49.3520 -10.0670 249° West 477 549 30,000  Level FlightAware ADS-B
Mon 12:10:17 PM 49.3250 -10.1740 249° West 477 549 30,000  Level FlightAware ADS-B
Mon 12:10:57 PM 49.2980 -10.2820 249° West 477 549 30,000  Level FlightAware ADS-B
Mon 12:11:37 PM 49.2710 -10.3890 249° West 477 549 30,000  Level FlightAware ADS-B
Mon 12:12:17 PM 49.2440 -10.4970 249° West 477 549 30,000  Level FlightAware ADS-B
Mon 12:12:57 PM 49.2170 -10.6040 249° West 477 549 30,000  Level FlightAware ADS-B
Mon 12:13:47 PM 49.1840 -10.7380 249° West 477 549 30,000  Level FlightAware ADS-B
Mon 12:14:27 PM 49.1570 -10.8450 249° West 477 549 30,000  Level FlightAware ADS-B
Mon 12:15:07 PM 49.1300 -10.9520 249° West 477 549 30,000  Level FlightAware ADS-B
Mon 12:15:47 PM 49.1030 -11.0590 249° West 477 549 30,000 35 Level FlightAware ADS-B
Mon 12:18:00 PM 48.9915 -11.4526 247° West  Level FlightAware Approximate
Mon 12:19:00 PM 48.9408 -11.6296 246° West  Level FlightAware Approximate
Mon 12:20:00 PM 48.8897 -11.8062 246° West  Level FlightAware Approximate
Mon 12:21:00 PM 48.8385 -11.9825 246° West  Level FlightAware Approximate
Mon 12:22:00 PM 48.7571 -12.1296 228° Southwest  Level FlightAware Approximate
Mon 12:23:00 PM 48.6724 -12.2726 228° Southwest  Level FlightAware Approximate
Mon 12:24:00 PM 48.5876 -12.4152 228° Southwest  Level FlightAware Approximate
Mon 12:25:00 PM 48.5026 -12.5574 228° Southwest  Level FlightAware Approximate
Mon 12:26:00 PM 48.4174 -12.6990 228° Southwest  Level FlightAware Approximate
Mon 12:27:00 PM 48.3321 -12.8401 228° Southwest  Level FlightAware Approximate
Mon 12:28:00 PM 48.2466 -12.9808 228° Southwest  Level FlightAware Approximate
Mon 12:29:00 PM 48.1609 -13.1211 228° Southwest  Level FlightAware Approximate
Mon 12:30:00 PM 48.0750 -13.2608 227° Southwest  Level FlightAware Approximate
Mon 12:31:00 PM 47.9890 -13.4001 227° Southwest  Level FlightAware Approximate
Mon 12:32:00 PM 47.9031 -13.5393 228° Southwest  Level FlightAware Approximate
Mon 12:33:00 PM 47.8183 -13.6798 228° Southwest  Level FlightAware Approximate
Mon 12:34:00 PM 47.7334 -13.8199 228° Southwest  Level FlightAware Approximate
Mon 12:35:00 PM 47.6483 -13.9595 228° Southwest  Level FlightAware Approximate
Mon 12:36:00 PM 47.5631 -14.0987 228° Southwest  Level FlightAware Approximate
Mon 12:37:00 PM 47.4776 -14.2375 228° Southwest  Level FlightAware Approximate
Mon 12:38:00 PM 47.3920 -14.3757 228° Southwest  Level FlightAware Approximate
Mon 12:39:00 PM 47.3063 -14.5136 227° Southwest  Level FlightAware Approximate
Mon 12:40:00 PM 47.2203 -14.6510 227° Southwest  Level FlightAware Approximate
Mon 12:41:00 PM 47.1342 -14.7879 227° Southwest  Level FlightAware Approximate
Mon 12:42:00 PM 47.0480 -14.9244 227° Southwest  Level FlightAware Approximate
Mon 12:43:00 PM 46.9731 -15.0726 241° Southwest  Level FlightAware Approximate
Mon 12:44:00 PM 46.9123 -15.2356 241° Southwest  Level FlightAware Approximate
Mon 12:45:00 PM 46.8514 -15.3983 241° Southwest  Level FlightAware Approximate
Mon 12:46:00 PM 46.7902 -15.5605 241° Southwest  Level FlightAware Approximate
Mon 12:47:00 PM 46.7287 -15.7225 241° Southwest  Level FlightAware Approximate
Mon 12:48:00 PM 46.6671 -15.8840 241° Southwest  Level FlightAware Approximate
Mon 12:49:00 PM 46.6052 -16.0452 241° Southwest  Level FlightAware Approximate
Mon 12:50:00 PM 46.5431 -16.2060 241° Southwest  Level FlightAware Approximate
Mon 12:51:00 PM 46.4808 -16.3664 241° Southwest  Level FlightAware Approximate
Mon 12:52:00 PM 46.4182 -16.5265 240° Southwest  Level FlightAware Approximate
Mon 12:53:00 PM 46.3554 -16.6862 240° Southwest  Level FlightAware Approximate
Mon 12:54:00 PM 46.2932 -16.8461 241° Southwest  Level FlightAware Approximate
Mon 12:55:00 PM 46.2307 -17.0057 241° Southwest  Level FlightAware Approximate
Mon 12:56:00 PM 46.1681 -17.1650 240° Southwest  Level FlightAware Approximate
Mon 12:57:00 PM 46.1052 -17.3238 240° Southwest  Level FlightAware Approximate
Mon 12:58:00 PM 46.0421 -17.4824 240° Southwest  Level FlightAware Approximate
Mon 12:59:00 PM 45.9788 -17.6405 240° Southwest  Level FlightAware Approximate
Mon 01:00:00 PM 45.9152 -17.7983 240° Southwest  Level FlightAware Approximate
Mon 01:01:00 PM 45.8515 -17.9557 240° Southwest  Level FlightAware Approximate
Mon 01:02:00 PM 45.7875 -18.1128 240° Southwest  Level FlightAware Approximate
Mon 01:03:00 PM 45.7233 -18.2695 240° Southwest  Level FlightAware Approximate
Mon 01:04:00 PM 45.6591 -18.4261 240° Southwest  Level FlightAware Approximate
Mon 01:05:00 PM 45.5952 -18.5827 240° Southwest  Level FlightAware Approximate
Mon 01:06:00 PM 45.5311 -18.7389 240° Southwest  Level FlightAware Approximate
Mon 01:07:00 PM 45.4667 -18.8948 240° Southwest  Level FlightAware Approximate
Mon 01:08:00 PM 45.4022 -19.0503 239° Southwest  Level FlightAware Approximate
Mon 01:09:00 PM 45.3374 -19.2054 239° Southwest  Level FlightAware Approximate
Mon 01:10:00 PM 45.2724 -19.3602 239° Southwest  Level FlightAware Approximate
Mon 01:11:00 PM 45.2072 -19.5147 239° Southwest  Level FlightAware Approximate
Mon 01:12:00 PM 45.1418 -19.6687 239° Southwest  Level FlightAware Approximate
Mon 01:13:00 PM 45.0762 -19.8225 239° Southwest  Level FlightAware Approximate
Mon 01:14:00 PM 45.0104 -19.9758 239° Southwest  Level FlightAware Approximate
Mon 01:15:00 PM 44.9652 -20.1427 251° West  Level FlightAware Approximate
Mon 01:16:00 PM 44.9236 -20.3120 251° West  Level FlightAware Approximate
Mon 01:17:00 PM 44.8819 -20.4810 251° West  Level FlightAware Approximate
Mon 01:18:00 PM 44.8398 -20.6497 251° West  Level FlightAware Approximate
Mon 01:19:00 PM 44.7975 -20.8183 251° West  Level FlightAware Approximate
Mon 01:20:00 PM 44.7550 -20.9865 250° West  Level FlightAware Approximate
Mon 01:21:00 PM 44.7122 -21.1545 250° West  Level FlightAware Approximate
Mon 01:22:00 PM 44.6692 -21.3223 250° West  Level FlightAware Approximate
Mon 01:23:00 PM 44.6259 -21.4898 250° West  Level FlightAware Approximate
Mon 01:24:00 PM 44.5824 -21.6570 250° West  Level FlightAware Approximate
Mon 01:25:00 PM 44.5386 -21.8241 250° West  Level FlightAware Approximate
Mon 01:26:00 PM 44.4946 -21.9908 250° West  Level FlightAware Approximate
Mon 01:27:00 PM 44.4503 -22.1573 250° West  Level FlightAware Approximate
Mon 01:28:00 PM 44.4058 -22.3236 250° West  Level FlightAware Approximate
Mon 01:29:00 PM 44.3611 -22.4896 249° West  Level FlightAware Approximate
Mon 01:30:00 PM 44.3161 -22.6553 249° West  Level FlightAware Approximate
Mon 01:31:00 PM 44.2709 -22.8208 249° West  Level FlightAware Approximate
Mon 01:32:00 PM 44.2254 -22.9861 249° West  Level FlightAware Approximate
Mon 01:33:00 PM 44.1798 -23.1510 249° West  Level FlightAware Approximate
Mon 01:34:00 PM 44.1338 -23.3158 249° West  Level FlightAware Approximate
Mon 01:35:00 PM 44.0877 -23.4802 249° West  Level FlightAware Approximate
Mon 01:36:00 PM 44.0413 -23.6444 249° West  Level FlightAware Approximate
Mon 01:37:00 PM 43.9946 -23.8084 248° West  Level FlightAware Approximate
Mon 01:38:00 PM 43.9478 -23.9721 248° West  Level FlightAware Approximate
Mon 01:39:00 PM 43.9007 -24.1355 248° West  Level FlightAware Approximate
Mon 01:40:00 PM 43.8533 -24.2987 248° West  Level FlightAware Approximate
Mon 01:41:00 PM 43.8058 -24.4616 248° West  Level FlightAware Approximate
Mon 01:42:00 PM 43.7579 -24.6243 248° West  Level FlightAware Approximate
Mon 01:43:00 PM 43.7099 -24.7867 248° West  Level FlightAware Approximate
Mon 01:44:00 PM 43.6617 -24.9488 248° West  Level FlightAware Approximate
Mon 01:45:00 PM 43.6132 -25.1107 248° West  Level FlightAware Approximate
Mon 01:46:00 PM 43.5645 -25.2723 247° West  Level FlightAware Approximate
Mon 01:47:00 PM 43.5155 -25.4337 247° West  Level FlightAware Approximate
Mon 01:48:00 PM 43.4664 -25.5948 247° West  Level FlightAware Approximate
Mon 01:49:00 PM 43.4170 -25.7556 247° West  Level FlightAware Approximate
Mon 01:50:00 PM 43.3673 -25.9162 247° West  Level FlightAware Approximate
Mon 01:51:00 PM 43.3175 -26.0765 247° West  Level FlightAware Approximate
Mon 01:52:00 PM 43.2674 -26.2365 247° West  Level FlightAware Approximate
Mon 01:53:00 PM 43.2171 -26.3963 247° West  Level FlightAware Approximate
Mon 01:54:00 PM 43.1666 -26.5558 247° West  Level FlightAware Approximate
Mon 01:55:00 PM 43.1159 -26.7151 246° West  Level FlightAware Approximate
Mon 01:56:00 PM 43.0649 -26.8740 246° West  Level FlightAware Approximate
Mon 01:57:00 PM 43.0138 -27.0328 246° West  Level FlightAware Approximate
Mon 01:58:00 PM 42.9624 -27.1912 246° West  Level FlightAware Approximate
Mon 01:59:00 PM 42.9108 -27.3494 246° West  Level FlightAware Approximate
Mon 02:00:00 PM 42.8590 -27.5073 246° West  Level FlightAware Approximate
Mon 02:01:00 PM 42.8069 -27.6650 246° West  Level FlightAware Approximate
Mon 02:02:00 PM 42.7547 -27.8224 246° West  Level FlightAware Approximate
Mon 02:03:00 PM 42.7022 -27.9795 246° West  Level FlightAware Approximate
Mon 02:04:00 PM 42.6495 -28.1364 245° Southwest  Level FlightAware Approximate
Mon 02:05:00 PM 42.5966 -28.2929 245° Southwest  Level FlightAware Approximate
Mon 02:06:00 PM 42.5435 -28.4493 245° Southwest  Level FlightAware Approximate
Mon 02:07:00 PM 42.4901 -28.6053 245° Southwest  Level FlightAware Approximate
Mon 02:08:00 PM 42.4366 -28.7611 245° Southwest  Level FlightAware Approximate
Mon 02:09:00 PM 42.3828 -28.9167 245° Southwest  Level FlightAware Approximate
Mon 02:10:00 PM 42.3289 -29.0719 245° Southwest  Level FlightAware Approximate
Mon 02:11:00 PM 42.2747 -29.2269 245° Southwest  Level FlightAware Approximate
Mon 02:12:00 PM 42.2203 -29.3817 245° Southwest  Level FlightAware Approximate
Mon 02:13:00 PM 42.1657 -29.5361 245° Southwest  Level FlightAware Approximate
Mon 02:14:00 PM 42.1110 -29.6903 244° Southwest  Level FlightAware Approximate
Mon 02:15:00 PM 42.0560 -29.8442 244° Southwest  Level FlightAware Approximate
Mon 02:16:00 PM 42.0008 -29.9979 244° Southwest  Level FlightAware Approximate
Mon 02:17:00 PM 41.9483 -30.1532 246° West  Level FlightAware Approximate
Mon 02:18:00 PM 41.8957 -30.3082 246° West  Level FlightAware Approximate
Mon 02:19:00 PM 41.8429 -30.4630 245° Southwest  Level FlightAware Approximate
Mon 02:20:00 PM 41.7899 -30.6175 245° Southwest  Level FlightAware Approximate
Mon 02:21:00 PM 41.7366 -30.7718 245° Southwest  Level FlightAware Approximate
Mon 02:22:00 PM 41.6832 -30.9258 245° Southwest  Level FlightAware Approximate
Mon 02:23:00 PM 41.6296 -31.0796 245° Southwest  Level FlightAware Approximate
Mon 02:24:00 PM 41.5757 -31.2331 245° Southwest  Level FlightAware Approximate
Mon 02:25:00 PM 41.5217 -31.3864 245° Southwest  Level FlightAware Approximate
Mon 02:26:00 PM 41.4674 -31.5394 245° Southwest  Level FlightAware Approximate
Mon 02:27:00 PM 41.4130 -31.6921 245° Southwest  Level FlightAware Approximate
Mon 02:28:00 PM 41.3583 -31.8446 245° Southwest  Level FlightAware Approximate
Mon 02:29:00 PM 41.3035 -31.9968 244° Southwest  Level FlightAware Approximate
Mon 02:30:00 PM 41.2484 -32.1488 244° Southwest  Level FlightAware Approximate
Mon 02:31:00 PM 41.1931 -32.3005 244° Southwest  Level FlightAware Approximate
Mon 02:32:00 PM 41.1377 -32.4520 244° Southwest  Level FlightAware Approximate
Mon 02:33:00 PM 41.0821 -32.6032 244° Southwest  Level FlightAware Approximate
Mon 02:34:00 PM 41.0262 -32.7541 244° Southwest  Level FlightAware Approximate
Mon 02:35:00 PM 40.9701 -32.9048 244° Southwest  Level FlightAware Approximate
Mon 02:36:00 PM 40.9139 -33.0552 244° Southwest  Level FlightAware Approximate
Mon 02:37:00 PM 40.8575 -33.2054 244° Southwest  Level FlightAware Approximate
Mon 02:38:00 PM 40.8008 -33.3554 244° Southwest  Level FlightAware Approximate
Mon 02:39:00 PM 40.7440 -33.5050 243° Southwest  Level FlightAware Approximate
Mon 02:40:00 PM 40.6870 -33.6544 243° Southwest  Level FlightAware Approximate
Mon 02:41:00 PM 40.6298 -33.8036 243° Southwest  Level FlightAware Approximate
Mon 02:42:00 PM 40.5724 -33.9525 243° Southwest  Level FlightAware Approximate
Mon 02:43:00 PM 40.5148 -34.1011 243° Southwest  Level FlightAware Approximate
Mon 02:44:00 PM 40.4570 -34.2495 243° Southwest  Level FlightAware Approximate
Mon 02:45:00 PM 40.3990 -34.3976 243° Southwest  Level FlightAware Approximate
Mon 02:46:00 PM 40.3409 -34.5455 243° Southwest  Level FlightAware Approximate
Mon 02:47:00 PM 40.2825 -34.6931 243° Southwest  Level FlightAware Approximate
Mon 02:48:00 PM 40.2240 -34.8405 243° Southwest  Level FlightAware Approximate
Mon 02:49:00 PM 40.1653 -34.9876 242° Southwest  Level FlightAware Approximate
Mon 02:50:00 PM 40.1064 -35.1345 242° Southwest  Level FlightAware Approximate
Mon 02:51:00 PM 40.0473 -35.2811 242° Southwest  Level FlightAware Approximate
Mon 02:52:00 PM 39.9880 -35.4274 242° Southwest  Level FlightAware Approximate
Mon 02:53:00 PM 39.9285 -35.5735 242° Southwest  Level FlightAware Approximate
Mon 02:54:00 PM 39.8689 -35.7194 242° Southwest  Level FlightAware Approximate
Mon 02:55:00 PM 39.8091 -35.8649 242° Southwest  Level FlightAware Approximate
Mon 02:56:00 PM 39.7490 -36.0103 242° Southwest  Level FlightAware Approximate
Mon 02:57:00 PM 39.6889 -36.1554 242° Southwest  Level FlightAware Approximate
Mon 02:58:00 PM 39.6285 -36.3002 242° Southwest  Level FlightAware Approximate
Mon 02:59:00 PM 39.5679 -36.4448 242° Southwest  Level FlightAware Approximate
Mon 03:00:00 PM 39.5072 -36.5891 241° Southwest  Level FlightAware Approximate
Mon 03:01:00 PM 39.4463 -36.7332 241° Southwest  Level FlightAware Approximate
Mon 03:02:00 PM 39.3852 -36.8770 241° Southwest  Level FlightAware Approximate
Mon 03:03:00 PM 39.3240 -37.0205 241° Southwest  Level FlightAware Approximate
Mon 03:04:00 PM 39.2625 -37.1638 241° Southwest  Level FlightAware Approximate
Mon 03:05:00 PM 39.2009 -37.3069 241° Southwest  Level FlightAware Approximate
Mon 03:06:00 PM 39.1391 -37.4497 241° Southwest  Level FlightAware Approximate
Mon 03:07:00 PM 39.0771 -37.5923 241° Southwest  Level FlightAware Approximate
Mon 03:08:00 PM 39.0150 -37.7346 241° Southwest  Level FlightAware Approximate
Mon 03:08:57 PM 38.0000 -40.0000 253° West 501 577 36,000  Level New York Oceanic (ODAPS)
Mon 03:09:00 PM 38.9527 -37.8766 241° Southwest  Level FlightAware Approximate
Mon 03:10:00 PM 38.8902 -38.0185 241° Southwest  Level FlightAware Approximate
Mon 03:11:00 PM 38.8276 -38.1600 240° Southwest  Level FlightAware Approximate
Mon 03:12:00 PM 38.7648 -38.3013 240° Southwest  Level FlightAware Approximate
Mon 03:13:00 PM 38.7018 -38.4424 240° Southwest  Level FlightAware Approximate
Mon 03:14:00 PM 38.6386 -38.5832 240° Southwest  Level FlightAware Approximate
Mon 03:15:00 PM 37.7429 -41.0176 252° West 501 577 36,000  Level FlightAware Transoceanic
Mon 03:16:00 PM 37.6992 -41.1865 252° West 501 577 36,000  Level FlightAware Transoceanic
Mon 03:17:00 PM 37.6553 -41.3552 252° West 501 577 36,000  Level FlightAware Transoceanic
Mon 03:18:00 PM 37.6111 -41.5237 252° West 501 577 36,000  Level FlightAware Transoceanic
Mon 03:19:00 PM 37.5667 -41.6920 252° West 501 577 36,000  Level FlightAware Transoceanic
Mon 03:20:00 PM 37.5220 -41.8601 251° West 501 577 36,000  Level FlightAware Transoceanic
Mon 03:21:00 PM 37.4771 -42.0280 251° West 501 577 36,000  Level FlightAware Transoceanic
Mon 03:22:00 PM 37.4320 -42.1956 251° West 501 577 36,000  Level FlightAware Transoceanic
Mon 03:22:22 PM 37.4167 -42.2333 251° West 493 567 36,000  Level New York Oceanic (ODAPS)
Mon 03:23:00 PM 37.3866 -42.3632 251° West 501 577 36,000  Level FlightAware Transoceanic
Mon 03:24:00 PM 37.3410 -42.5304 251° West 501 577 36,000  Level FlightAware Transoceanic
Mon 03:25:00 PM 37.2952 -42.6975 251° West 501 577 36,000  Level FlightAware Transoceanic
Mon 03:26:00 PM 37.2491 -42.8644 251° West 501 577 36,000  Level FlightAware Transoceanic
Mon 03:27:00 PM 37.2028 -43.0311 251° West 501 577 36,000  Level FlightAware Transoceanic
Mon 03:28:00 PM 37.1482 -43.2099 251° West 493 567 36,000  Level FlightAware Transoceanic
Mon 03:29:00 PM 37.1027 -43.3720 251° West 493 567 36,000  Level FlightAware Transoceanic
Mon 03:30:00 PM 37.0570 -43.5339 250° West 493 567 36,000  Level FlightAware Transoceanic
Mon 03:31:00 PM 37.0110 -43.6956 250° West 493 567 36,000  Level FlightAware Transoceanic
Mon 03:32:00 PM 36.9649 -43.8571 250° West 493 567 36,000  Level FlightAware Transoceanic
Mon 03:33:00 PM 36.9185 -44.0185 250° West 493 567 36,000  Level FlightAware Transoceanic
Mon 03:34:00 PM 36.8719 -44.1796 250° West 493 567 36,000  Level FlightAware Transoceanic
Mon 03:35:00 PM 36.8250 -44.3405 250° West 493 567 36,000  Level FlightAware Transoceanic
Mon 03:36:00 PM 36.7780 -44.5012 250° West 493 567 36,000  Level FlightAware Transoceanic
Mon 03:37:00 PM 36.7307 -44.6617 250° West 493 567 36,000  Level FlightAware Transoceanic
Mon 03:38:00 PM 36.6833 -44.8220 250° West 493 567 36,000  Level FlightAware Transoceanic
Mon 03:39:00 PM 36.6356 -44.9822 250° West 493 567 36,000  Level FlightAware Transoceanic
Mon 03:40:00 PM 36.5877 -45.1421 249° West 493 567 36,000  Level FlightAware Transoceanic
Mon 03:41:00 PM 36.5395 -45.3018 249° West 493 567 36,000  Level FlightAware Transoceanic
Mon 03:42:00 PM 36.4912 -45.4613 249° West 493 567 36,000  Level FlightAware Transoceanic
Mon 03:42:39 PM 36.4667 -45.5667 249° West 496 571 36,000  Level New York Oceanic (ODAPS)
Mon 03:43:00 PM 36.4427 -45.6207 249° West 493 567 36,000  Level FlightAware Transoceanic
Mon 03:44:00 PM 36.3939 -45.7798 249° West 493 567 36,000  Level FlightAware Transoceanic
Mon 03:45:00 PM 36.3450 -45.9387 249° West 493 567 36,000  Level FlightAware Transoceanic
Mon 03:46:00 PM 36.2958 -46.0974 249° West 493 567 36,000  Level FlightAware Transoceanic
Mon 03:47:00 PM 36.2464 -46.2560 249° West 493 567 36,000  Level FlightAware Transoceanic
Mon 03:48:00 PM 36.1968 -46.4143 249° West 493 567 36,000  Level FlightAware Transoceanic
Mon 03:49:00 PM 36.1277 -46.6517 248° West 496 571 36,000  Level FlightAware Transoceanic
Mon 03:50:00 PM 36.0784 -46.8060 248° West 496 571 36,000  Level FlightAware Transoceanic
Mon 03:51:00 PM 36.0290 -46.9600 248° West 496 571 36,000  Level FlightAware Transoceanic
Mon 03:52:00 PM 35.9794 -47.1138 248° West 496 571 36,000  Level FlightAware Transoceanic
Mon 03:53:00 PM 35.9296 -47.2675 248° West 496 571 36,000  Level FlightAware Transoceanic
Mon 03:54:00 PM 35.8796 -47.4210 248° West 496 571 36,000  Level FlightAware Transoceanic
Mon 03:55:00 PM 35.8293 -47.5742 248° West 496 571 36,000  Level FlightAware Transoceanic
Mon 03:56:00 PM 35.7789 -47.7273 248° West 496 571 36,000  Level FlightAware Transoceanic
Mon 03:57:00 PM 35.7283 -47.8802 248° West 496 571 36,000  Level FlightAware Transoceanic
Mon 03:58:00 PM 35.6776 -48.0329 248° West 496 571 36,000  Level FlightAware Transoceanic
Mon 03:59:00 PM 35.6266 -48.1853 248° West 496 571 36,000  Level FlightAware Transoceanic
Mon 04:00:00 PM 35.5754 -48.3376 248° West 496 571 36,000  Level FlightAware Transoceanic
Mon 04:01:00 PM 35.5240 -48.4897 247° West 496 571 36,000  Level FlightAware Transoceanic
Mon 04:02:00 PM 35.4725 -48.6416 247° West 496 571 36,000  Level FlightAware Transoceanic
Mon 04:02:52 PM 35.4333 -48.7500 247° West 481 554 36,000  Level New York Oceanic (ODAPS)
Mon 04:03:00 PM 35.4207 -48.7934 247° West 496 571 36,000  Level FlightAware Transoceanic
Mon 04:04:00 PM 35.3688 -48.9449 247° West 496 571 36,000  Level FlightAware Transoceanic
Mon 04:05:00 PM 35.3167 -49.0962 247° West 496 571 36,000  Level FlightAware Transoceanic
Mon 04:06:00 PM 35.2644 -49.2473 247° West 496 571 36,000  Level FlightAware Transoceanic
Mon 04:07:00 PM 35.2119 -49.3982 247° West 496 571 36,000  Level FlightAware Transoceanic
Mon 04:08:00 PM 35.1592 -49.5490 247° West 496 571 36,000  Level FlightAware Transoceanic
Mon 04:09:00 PM 35.1095 -49.6888 247° West 481 554 36,000  Level FlightAware Transoceanic
Mon 04:10:00 PM 35.0549 -49.8445 247° West 481 554 36,000  Level FlightAware Transoceanic
Mon 04:11:00 PM 35.0000 -50.0000 259° West 481 554 36,000  Level FlightAware Transoceanic
Mon 04:11:12 PM 35.0000 -50.0000 259° West 469 540 36,000  Level New York Oceanic (ODAPS)
Mon 04:12:00 PM 34.9755 -50.1572 259° West 481 554 36,000  Level FlightAware Transoceanic
Mon 04:13:00 PM 34.9508 -50.3144 259° West 481 554 36,000  Level FlightAware Transoceanic
Mon 04:14:00 PM 34.9259 -50.4715 259° West 481 554 36,000  Level FlightAware Transoceanic
Mon 04:15:00 PM 34.9007 -50.6284 259° West 481 554 36,000  Level FlightAware Transoceanic
Mon 04:16:00 PM 34.8754 -50.7853 259° West 481 554 36,000  Level FlightAware Transoceanic
Mon 04:17:00 PM 34.8522 -50.9278 259° West 469 540 36,000  Level FlightAware Transoceanic
Mon 04:18:00 PM 34.8269 -51.0821 259° West 469 540 36,000  Level FlightAware Transoceanic
Mon 04:19:00 PM 34.8014 -51.2363 259° West 469 540 36,000  Level FlightAware Transoceanic
Mon 04:20:00 PM 34.7757 -51.3904 258° West 469 540 36,000  Level FlightAware Transoceanic
Mon 04:21:00 PM 34.7498 -51.5444 258° West 469 540 36,000  Level FlightAware Transoceanic
Mon 04:22:00 PM 34.7237 -51.6984 258° West 469 540 36,000  Level FlightAware Transoceanic
Mon 04:23:00 PM 34.6974 -51.8522 258° West 469 540 36,000  Level FlightAware Transoceanic
Mon 04:23:11 PM 34.7000 -51.8333 258° West 465 535 36,000  Level New York Oceanic (ODAPS)
Mon 04:24:00 PM 34.6710 -52.0059 258° West 469 540 36,000  Level FlightAware Transoceanic
Mon 04:25:00 PM 34.6443 -52.1595 258° West 469 540 36,000  Level FlightAware Transoceanic
Mon 04:26:00 PM 34.6174 -52.3131 258° West 469 540 36,000  Level FlightAware Transoceanic
Mon 04:27:00 PM 34.5904 -52.4665 258° West 469 540 36,000  Level FlightAware Transoceanic
Mon 04:28:00 PM 34.5631 -52.6198 258° West 469 540 36,000  Level FlightAware Transoceanic
Mon 04:29:00 PM 34.5381 -52.7564 258° West 465 535 36,000  Level FlightAware Transoceanic
Mon 04:30:00 PM 34.5104 -52.9098 258° West 465 535 36,000  Level FlightAware Transoceanic
Mon 04:31:00 PM 34.4826 -53.0632 258° West 465 535 36,000  Level FlightAware Transoceanic
Mon 04:32:00 PM 34.4545 -53.2165 257° West 465 535 36,000  Level FlightAware Transoceanic
Mon 04:33:00 PM 34.4263 -53.3697 257° West 465 535 36,000  Level FlightAware Transoceanic
Mon 04:34:00 PM 34.3979 -53.5227 257° West 465 535 36,000  Level FlightAware Transoceanic
Mon 04:35:00 PM 34.3693 -53.6757 257° West 465 535 36,000  Level FlightAware Transoceanic
Mon 04:36:00 PM 34.3405 -53.8286 257° West 465 535 36,000  Level FlightAware Transoceanic
Mon 04:37:00 PM 34.3115 -53.9813 257° West 465 535 36,000  Level FlightAware Transoceanic
Mon 04:38:00 PM 34.2823 -54.1340 257° West 465 535 36,000  Level FlightAware Transoceanic
Mon 04:39:00 PM 34.2529 -54.2865 257° West 465 535 36,000  Level FlightAware Transoceanic
Mon 04:40:00 PM 34.2233 -54.4390 257° West 465 535 36,000  Level FlightAware Transoceanic
Mon 04:41:00 PM 34.1936 -54.5913 257° West 465 535 36,000  Level FlightAware Transoceanic
Mon 04:42:00 PM 34.1636 -54.7435 257° West 465 535 36,000  Level FlightAware Transoceanic
Mon 04:43:00 PM 34.1335 -54.8956 256° West 465 535 36,000 1,101 Level FlightAware Transoceanic
Mon 04:43:49 PM 34.1333 -54.9000 256° West 462 532 38,000  Climbing New York Oceanic (ODAPS)
Mon 04:44:00 PM 34.1032 -55.0476 256° West 465 535 36,000 -1,690 Descending FlightAware Transoceanic
Mon 04:45:00 PM 34.0727 -55.1995 256° West 465 535 36,000  Level FlightAware Transoceanic
Mon 04:46:00 PM 34.0420 -55.3513 256° West 465 535 36,000  Level FlightAware Transoceanic
Mon 04:47:00 PM 34.0111 -55.5030 256° West 465 535 36,000  Level FlightAware Transoceanic
Mon 04:48:00 PM 33.9801 -55.6546 256° West 465 535 36,000  Level FlightAware Transoceanic
Mon 04:49:00 PM 33.9488 -55.8060 256° West 465 535 36,000 1,000 Level FlightAware Transoceanic
Mon 04:50:00 PM 33.9235 -55.9306 256° West 462 532 38,000 1,000 Climbing FlightAware Transoceanic
Mon 04:51:00 PM 33.8928 -56.0774 256° West 462 532 38,000  Level FlightAware Transoceanic
Mon 04:52:00 PM 33.8620 -56.2241 256° West 462 532 38,000  Level FlightAware Transoceanic
Mon 04:53:00 PM 33.8310 -56.3707 256° West 462 532 38,000  Level FlightAware Transoceanic
Mon 04:54:00 PM 33.7998 -56.5172 256° West 462 532 38,000  Level FlightAware Transoceanic
Mon 04:55:00 PM 33.7684 -56.6636 256° West 462 532 38,000  Level FlightAware Transoceanic
Mon 04:56:00 PM 33.7369 -56.8098 255° West 462 532 38,000  Level FlightAware Transoceanic
Mon 04:57:00 PM 33.7052 -56.9560 255° West 462 532 38,000  Level FlightAware Transoceanic
Mon 04:58:00 PM 33.6733 -57.1021 255° West 462 532 38,000  Level FlightAware Transoceanic
Mon 04:59:00 PM 33.6412 -57.2480 255° West 462 532 38,000  Level FlightAware Transoceanic
Mon 05:00:00 PM 33.6090 -57.3939 255° West 462 532 38,000  Level FlightAware Transoceanic
Mon 05:01:00 PM 33.5766 -57.5396 255° West 462 532 38,000  Level FlightAware Transoceanic
Mon 05:02:00 PM 33.5440 -57.6852 255° West 462 532 38,000  Level FlightAware Transoceanic
Mon 05:03:00 PM 33.5113 -57.8307 255° West 462 532 38,000 566 Level FlightAware Transoceanic
Mon 05:03:46 PM 33.5000 -57.8833 255° West 449 517 39,000  Climbing New York Oceanic (ODAPS)
Mon 05:04:00 PM 33.4784 -57.9761 255° West 462 532 38,000 -811 Descending FlightAware Transoceanic
Mon 05:05:00 PM 33.4453 -58.1214 255° West 462 532 38,000  Level FlightAware Transoceanic
Mon 05:06:00 PM 33.4121 -58.2666 255° West 462 532 38,000  Level FlightAware Transoceanic
Mon 05:07:00 PM 33.3786 -58.4117 255° West 462 532 38,000  Level FlightAware Transoceanic
Mon 05:08:00 PM 33.3451 -58.5566 254° West 462 532 38,000  Level FlightAware Transoceanic
Mon 05:09:00 PM 33.3113 -58.7015 254° West 462 532 38,000 500 Level FlightAware Transoceanic
Mon 05:10:00 PM 33.2711 -58.8741 254° West 449 517 39,000 500 Climbing FlightAware Transoceanic
Mon 05:11:00 PM 33.2378 -59.0152 254° West 449 517 39,000  Level FlightAware Transoceanic
Mon 05:12:00 PM 33.2043 -59.1562 254° West 449 517 39,000  Level FlightAware Transoceanic
Mon 05:13:00 PM 33.1706 -59.2971 254° West 449 517 39,000  Level FlightAware Transoceanic
Mon 05:14:00 PM 33.1368 -59.4379 254° West 449 517 39,000  Level FlightAware Transoceanic
Mon 05:15:00 PM 33.1029 -59.5786 254° West 449 517 39,000  Level FlightAware Transoceanic
Mon 05:16:00 PM 33.0687 -59.7192 254° West 449 517 39,000  Level FlightAware Transoceanic
Mon 05:17:00 PM 33.0344 -59.8596 254° West 449 517 39,000  Level FlightAware Transoceanic
Mon 05:18:00 PM 33.0000 -60.0000 252° West 449 517 39,000  Level FlightAware Transoceanic
Mon 05:18:30 PM 33.0000 -60.0000 252° West 442 509 39,000  Level New York Oceanic (ODAPS)
Mon 05:19:00 PM 32.9635 -60.1338 252° West 449 517 39,000  Level FlightAware Transoceanic
Mon 05:20:00 PM 32.9269 -60.2674 252° West 449 517 39,000  Level FlightAware Transoceanic
Mon 05:21:00 PM 32.8902 -60.4010 252° West 449 517 39,000  Level FlightAware Transoceanic
Mon 05:22:00 PM 32.8533 -60.5345 252° West 449 517 39,000  Level FlightAware Transoceanic
Mon 05:23:00 PM 32.8162 -60.6678 252° West 449 517 39,000  Level FlightAware Transoceanic
Mon 05:23:51 PM 32.8000 -60.7500 251° West 442 509 39,000  Level New York Oceanic (ODAPS)
Mon 05:24:00 PM 32.7790 -60.8010 252° West 442 509 39,000  Level FlightAware Transoceanic
Mon 05:25:00 PM 32.7417 -60.9341 252° West 442 509 39,000  Level FlightAware Transoceanic
Mon 05:26:00 PM 32.7043 -61.0671 251° West 442 509 39,000  Level FlightAware Transoceanic
Mon 05:27:00 PM 32.6667 -61.2000 265° West 442 509 39,000  Level FlightAware Transoceanic
Mon 05:27:04 PM 32.6667 -61.2000 265° West 444 511 39,000  Level New York Oceanic (ODAPS)
Mon 05:28:00 PM 32.6556 -61.3519 265° West 442 509 39,000  Level FlightAware Transoceanic
Mon 05:29:00 PM 32.6444 -61.5038 265° West 442 509 39,000  Level FlightAware Transoceanic
Mon 05:30:00 PM 32.6330 -61.6556 265° West 442 509 39,000  Level FlightAware Transoceanic
Mon 05:31:00 PM 32.6214 -61.8074 265° West 442 509 39,000  Level FlightAware Transoceanic
Mon 05:32:00 PM 32.6096 -61.9592 265° West 442 509 39,000  Level FlightAware Transoceanic
Mon 05:33:00 PM 32.6007 -62.0730 265° West 444 511 39,000  Level FlightAware Transoceanic
Mon 05:34:00 PM 32.5891 -62.2183 265° West 444 511 39,000  Level FlightAware Transoceanic
Mon 05:35:00 PM 32.5774 -62.3637 264° West 444 511 39,000  Level FlightAware Transoceanic
Mon 05:36:00 PM 32.5654 -62.5089 264° West 444 511 39,000  Level FlightAware Transoceanic
Mon 05:37:00 PM 32.5533 -62.6542 264° West 444 511 39,000  Level FlightAware Transoceanic
Mon 05:38:00 PM 32.5411 -62.7994 264° West 444 511 39,000  Level FlightAware Transoceanic
Mon 05:39:00 PM 32.5287 -62.9446 264° West 444 511 39,000  Level FlightAware Transoceanic
Mon 05:40:00 PM 32.5161 -63.0897 264° West 444 511 39,000  Level FlightAware Transoceanic
Mon 05:41:00 PM 32.5033 -63.2348 264° West 444 511 39,000  Level FlightAware Transoceanic
Mon 05:42:00 PM 32.4904 -63.3798 264° West 444 511 39,000  Level FlightAware Transoceanic
Mon 05:43:00 PM 32.4773 -63.5248 264° West 444 511 39,000  Level FlightAware Transoceanic
Mon 05:44:00 PM 32.4641 -63.6698 264° West 444 511 39,000  Level FlightAware Transoceanic
Mon 05:44:08 PM 32.4667 -63.7000 263° West 456 525 39,000  Level New York Oceanic (ODAPS)
Mon 05:45:00 PM 32.4506 -63.8147 264° West 444 511 39,000  Level FlightAware Transoceanic
Mon 05:46:00 PM 32.4371 -63.9596 264° West 444 511 39,000  Level FlightAware Transoceanic
Mon 05:47:00 PM 32.4233 -64.1044 264° West 444 511 39,000  Level FlightAware Transoceanic
Mon 05:48:00 PM 32.4094 -64.2492 263° West 444 511 39,000  Level FlightAware Transoceanic
Mon 05:49:00 PM 32.3953 -64.3940 263° West 444 511 39,000  Level FlightAware Transoceanic
Mon 05:50:00 PM 32.3814 -64.5430 263° West 456 525 39,000  Level FlightAware Transoceanic
Mon 05:50:47 PM 32.3667 -64.6833 271° West 451 519 39,000  Level New York Oceanic (ODAPS)
Mon 05:51:00 PM 32.3667 -64.6833 271° West 456 525 39,000  Level FlightAware Transoceanic
Mon 05:52:00 PM 32.3680 -64.8377 271° West 456 525 39,000  Level FlightAware Transoceanic
Mon 05:53:00 PM 32.3692 -64.9920 270° West 456 525 39,000  Level FlightAware Transoceanic
Mon 05:54:00 PM 32.3701 -65.1464 270° West 456 525 39,000  Level FlightAware Transoceanic
Mon 05:55:00 PM 32.3709 -65.3008 270° West 456 525 39,000  Level FlightAware Transoceanic
Mon 05:56:00 PM 32.3715 -65.4551 270° West 456 525 39,000  Level FlightAware Transoceanic
Mon 05:57:00 PM 32.3718 -65.5709 270° West 451 519 39,000  Level FlightAware Transoceanic
Mon 05:58:00 PM 32.3721 -65.7188 270° West 451 519 39,000  Level FlightAware Transoceanic
Mon 05:59:00 PM 32.3722 -65.8668 270° West 451 519 39,000  Level FlightAware Transoceanic
Mon 06:00:00 PM 32.3721 -66.0147 270° West 451 519 39,000  Level FlightAware Transoceanic
Mon 06:00:08 PM 32.3667 -66.0833 270° West 452 520 39,000  Level New York Oceanic (ODAPS)
Mon 06:01:00 PM 32.3718 -66.1626 270° West 451 519 39,000  Level FlightAware Transoceanic
Mon 06:02:00 PM 32.3714 -66.3106 270° West 451 519 39,000  Level FlightAware Transoceanic
Mon 06:03:00 PM 32.3708 -66.4585 270° West 451 519 39,000  Level FlightAware Transoceanic
Mon 06:04:00 PM 32.3700 -66.6064 270° West 451 519 39,000  Level FlightAware Transoceanic
Mon 06:04:26 PM 32.3667 -66.7167 270° West 436 502 39,000  Level New York Oceanic (ODAPS)
Mon 06:05:00 PM 32.3690 -66.7543 270° West 451 519 39,000  Level FlightAware Transoceanic
Mon 06:06:00 PM 32.3644 -66.9434 270° West 452 520 39,000  Level FlightAware Transoceanic
Mon 06:07:00 PM 32.3634 -67.0868 270° West 452 520 39,000  Level FlightAware Transoceanic
Mon 06:07:49 PM 32.3667 -67.2000 269° West 441 507 39,000  Level New York Oceanic (ODAPS)
Mon 06:08:00 PM 32.3623 -67.2301 269° West 452 520 39,000  Level FlightAware Transoceanic
Mon 06:09:00 PM 32.3610 -67.3734 269° West 452 520 39,000  Level FlightAware Transoceanic
Mon 06:10:00 PM 32.3598 -67.5440 269° West 436 502 39,000  Level FlightAware Transoceanic
Mon 06:11:00 PM 32.3582 -67.6819 269° West 436 502 39,000  Level FlightAware Transoceanic
Mon 06:12:00 PM 32.3563 -67.8198 269° West 436 502 39,000  Level FlightAware Transoceanic
Mon 06:13:00 PM 32.3544 -67.9576 269° West 436 502 39,000  Level FlightAware Transoceanic
Mon 06:14:00 PM 32.3529 -68.0857 269° West 441 507 39,000  Level FlightAware Transoceanic
Mon 06:15:00 PM 32.3500 -68.2333 265° West 441 507 39,000  Level FlightAware Transoceanic
Mon 06:15:07 PM 32.3500 -68.2333 265° West 428 493 39,000  Level New York Oceanic (ODAPS)
Mon 06:16:00 PM 32.3383 -68.3809 265° West 441 507 39,000  Level FlightAware Transoceanic
Mon 06:17:00 PM 32.3265 -68.5284 265° West 441 507 39,000  Level FlightAware Transoceanic
Mon 06:18:00 PM 32.3144 -68.6758 264° West 441 507 39,000  Level FlightAware Transoceanic
Mon 06:19:00 PM 32.3022 -68.8232 264° West 441 507 39,000  Level FlightAware Transoceanic
Mon 06:20:00 PM 32.2898 -68.9706 264° West 441 507 39,000  Level FlightAware Transoceanic
Mon 06:21:00 PM 32.2798 -69.0894 264° West 428 493 39,000  Level FlightAware Transoceanic
Mon 06:22:00 PM 32.2675 -69.2320 264° West 428 493 39,000  Level FlightAware Transoceanic
Mon 06:23:00 PM 32.2551 -69.3745 264° West 428 493 39,000  Level FlightAware Transoceanic
Mon 06:24:00 PM 32.2425 -69.5170 264° West 428 493 39,000  Level FlightAware Transoceanic
Mon 06:24:43 PM 32.2500 -69.5333 264° West 433 498 39,000  Level New York Oceanic (ODAPS)
Mon 06:25:00 PM 32.2297 -69.6594 264° West 428 493 39,000  Level FlightAware Transoceanic
Mon 06:26:00 PM 32.2168 -69.8018 264° West 428 493 39,000  Level FlightAware Transoceanic
Mon 06:27:00 PM 32.2037 -69.9441 264° West 428 493 39,000  Level FlightAware Transoceanic
Mon 06:28:00 PM 32.1905 -70.0864 264° West 428 493 39,000  Level FlightAware Transoceanic
Mon 06:29:00 PM 32.1771 -70.2287 264° West 428 493 39,000  Level FlightAware Transoceanic
Mon 06:30:00 PM 32.1636 -70.3709 264° West 428 493 39,000  Level FlightAware Transoceanic
Mon 06:31:00 PM 32.1686 -70.4019 263° West 433 498 39,000  Level FlightAware Transoceanic
Mon 06:32:00 PM 32.1544 -70.5465 263° West 433 498 39,000  Level FlightAware Transoceanic
Mon 06:33:00 PM 32.1401 -70.6910 263° West 433 498 39,000  Level FlightAware Transoceanic
Mon 06:34:00 PM 32.1256 -70.8356 263° West 433 498 39,000  Level FlightAware Transoceanic
Mon 06:35:00 PM 32.1110 -70.9800 263° West 433 498 39,000  Level FlightAware Transoceanic
Mon 06:36:00 PM 32.0962 -71.1245 263° West 433 498 39,000  Level FlightAware Transoceanic
Mon 06:37:00 PM 32.0812 -71.2688 263° West 433 498 39,000  Level FlightAware Transoceanic
Mon 06:38:00 PM 32.0661 -71.4132 263° West 433 498 39,000  Level FlightAware Transoceanic
Mon 06:39:00 PM 32.0508 -71.5574 263° West 433 498 39,000  Level FlightAware Transoceanic
Mon 06:40:00 PM 32.0353 -71.7017 263° West 433 498 39,000  Level FlightAware Transoceanic
Mon 06:40:51 PM 32.0500 -71.7833 262° West 440 506 39,000  Level New York Oceanic (ODAPS)
Mon 06:41:00 PM 32.0197 -71.8458 263° West 433 498 39,000  Level FlightAware Transoceanic
Mon 06:42:00 PM 32.0039 -71.9900 263° West 433 498 39,000  Level FlightAware Transoceanic
Mon 06:42:44 PM 32.0167 -72.0333 262° West 439 505 39,000  Level New York Oceanic (ODAPS)
Mon 06:43:00 PM 31.9880 -72.1341 263° West 433 498 39,000  Level FlightAware Transoceanic
Mon 06:44:00 PM 31.9719 -72.2781 262° West 433 498 39,000  Level FlightAware Transoceanic
Mon 06:45:00 PM 31.9556 -72.4221 262° West 433 498 39,000 984 Level FlightAware Transoceanic
Mon 06:45:01 PM 31.9833 -72.3667 262° West 433 498 40,000  Climbing New York Oceanic (ODAPS)
Mon 06:46:00 PM 31.9391 -72.5660 262° West 433 498 39,000 -504 Descending FlightAware Transoceanic
Mon 06:47:00 PM 31.9482 -72.6581 262° West 440 506 39,000  Level FlightAware Transoceanic
Mon 06:48:00 PM 31.9306 -72.8037 262° West 440 506 39,000  Level FlightAware Transoceanic
Mon 06:49:00 PM 31.8988 -73.0322 262° West 439 505 39,000  Level FlightAware Transoceanic
Mon 06:50:00 PM 31.8813 -73.1747 262° West 439 505 39,000 500 Level FlightAware Transoceanic
Mon 06:51:00 PM 31.8807 -73.2137 262° West 433 498 40,000 500 Climbing FlightAware Transoceanic
Mon 06:52:00 PM 31.8630 -73.3547 262° West 433 498 40,000  Level FlightAware Transoceanic
Mon 06:53:00 PM 31.8452 -73.4956 262° West 433 498 40,000  Level FlightAware Transoceanic
Mon 06:54:00 PM 31.8273 -73.6365 261° West 433 498 40,000  Level FlightAware Transoceanic
Mon 06:55:00 PM 31.8092 -73.7773 261° West 433 498 40,000  Level FlightAware Transoceanic
Mon 06:55:49 PM 31.8000 -73.8500 261° West 435 501 40,000  Level New York Oceanic (ODAPS)
Mon 06:56:00 PM 31.7909 -73.9181 261° West 433 498 40,000  Level FlightAware Transoceanic
Mon 06:57:00 PM 31.7724 -74.0587 261° West 433 498 40,000  Level FlightAware Transoceanic
Mon 06:58:00 PM 31.7539 -74.1994 261° West 433 498 40,000  Level FlightAware Transoceanic
Mon 06:59:00 PM 31.7351 -74.3400 261° West 433 498 40,000  Level FlightAware Transoceanic
Mon 07:00:00 PM 31.7162 -74.4805 261° West 433 498 40,000  Level FlightAware Transoceanic
Mon 07:01:00 PM 31.6972 -74.6210 261° West 433 498 40,000  Level FlightAware Transoceanic
Mon 07:02:00 PM 31.6849 -74.7121 261° West 435 501 40,000  Level FlightAware Transoceanic
Mon 07:03:00 PM 31.6652 -74.8555 261° West 435 501 40,000  Level FlightAware Transoceanic
Mon 07:03:39 PM 31.6500 -74.9500 261° West 435 501 40,000  Level New York Oceanic (ODAPS)
Mon 07:04:00 PM 31.6453 -74.9989 261° West 435 501 40,000  Level FlightAware Transoceanic
Mon 07:05:00 PM 31.6253 -75.1423 261° West 435 501 40,000  Level FlightAware Transoceanic
Mon 07:05:14 PM 31.6167 -75.1833 261° West 441 507 40,000  Level New York Oceanic (ODAPS)
Mon 07:06:00 PM 31.6050 -75.2856 261° West 435 501 40,000  Level FlightAware Transoceanic
Mon 07:07:00 PM 31.5847 -75.4288 260° West 435 501 40,000  Level FlightAware Transoceanic
Mon 07:08:00 PM 31.5641 -75.5720 260° West 435 501 40,000  Level FlightAware Transoceanic
Mon 07:09:00 PM 31.5254 -75.8302 260° West 435 501 40,000  Level FlightAware Transoceanic
Mon 07:10:00 PM 31.5041 -75.9766 260° West 435 501 40,000  Level FlightAware Transoceanic
Mon 07:11:00 PM 31.4968 -76.0231 260° West 441 507 40,000  Level FlightAware Transoceanic
Mon 07:12:00 PM 31.4763 -76.1628 260° West 441 507 40,000  Level FlightAware Transoceanic
Mon 07:15:33 PM 31.4322 -76.6044 260° West 482 555 40,000  Level Jacksonville Center
Mon 07:16:33 PM 31.4064 -76.7594 259° West 464 534 40,000  Level Jacksonville Center
Mon 07:17:33 PM 31.3861 -76.9019 261° West 446 513 40,000  Level Jacksonville Center
Mon 07:18:33 PM 31.4128 -77.0267 284° West 426 490 40,000  Level Jacksonville Center
Mon 07:19:33 PM 31.5117 -77.1350 317° Northwest 427 491 40,000  Level Jacksonville Center
Mon 07:20:33 PM 31.5986 -77.2539 311° West 449 517 40,000  Level Jacksonville Center
Mon 07:21:33 PM 31.6850 -77.3683 312° West 466 536 40,000  Level Jacksonville Center
Mon 07:22:33 PM 31.7714 -77.4875 310° West 478 550 40,000  Level Jacksonville Center
Mon 07:23:33 PM 31.8558 -77.6075 310° West 478 550 40,000  Level Jacksonville Center
Mon 07:24:33 PM 31.9400 -77.7225 311° West 478 550 40,000  Level Jacksonville Center
Mon 07:25:33 PM 32.0264 -77.8450 310° West 484 557 40,000  Level Jacksonville Center
Mon 07:26:33 PM 32.1100 -77.9533 312° West 479 551 40,000  Level Jacksonville Center
Mon 07:27:33 PM 32.1958 -78.0739 310° West 479 551 40,000  Level Jacksonville Center
Mon 07:28:33 PM 32.2775 -78.1922 309° West 484 557 40,000  Level Jacksonville Center
Mon 07:29:33 PM 32.3553 -78.3161 307° West 482 555 40,000  Level Jacksonville Center
Mon 07:30:33 PM 32.4103 -78.4561 295° West 469 540 40,000  Level Jacksonville Center
Mon 07:31:33 PM 32.4697 -78.6083 295° West 464 534 40,000  Level Jacksonville Center
Mon 07:37:47 PM 32.7940 -79.4490 295° West 454 522 40,000  Level FlightAware ADS-B
Mon 07:38:42 PM 32.8430 -79.5770 295° West 447 514 40,000  Level FlightAware ADS-B
Mon 07:39:33 PM 32.8858 -79.6942 295° West 452 520 40,000  Level Jacksonville Center
Mon 07:40:33 PM 32.9350 -79.8236 294° West 447 514 40,000  Level Jacksonville Center
Mon 07:41:33 PM 32.9864 -79.9581 295° West 447 514 40,000  Level Jacksonville Center
Mon 07:42:33 PM 33.0372 -80.0925 294° West 442 509 40,000  Level Jacksonville Center
Mon 07:43:33 PM 33.0817 -80.2128 294° West 442 509 40,000  Level Jacksonville Center
Mon 07:44:33 PM 33.1325 -80.3450 295° West 442 509 40,000  Level Jacksonville Center
Mon 07:45:33 PM 33.1836 -80.5000 292° West 452 520 40,000  Level Jacksonville Center
Mon 07:46:33 PM 33.1900 -80.6289 273° West 432 497 40,000 -293 Level Jacksonville Center
Mon 07:52:22 PM 33.1670 -81.4630 273° West 416 479 38,000 -297 Descending FlightAware ADS-B
Mon 07:53:17 PM 33.1600 -81.5747 273° West 393 452 38,000 -417 Level Atlanta Center
Mon 07:54:17 PM 33.1564 -81.7089 268° West 398 458 37,200 -1,000 Descending Atlanta Center
Mon 07:55:17 PM 33.1506 -81.8456 267° West 403 464 36,000 -600 Descending Atlanta Center
Mon 07:56:17 PM 33.1447 -81.9869 267° West 420 483 36,000 -50 Level Atlanta Center
Mon 07:57:17 PM 33.1408 -82.1311 268° West 430 495 35,900 -1,012 Descending Atlanta Center
Mon 08:03:12 PM 33.1090 -83.0050 268° West 394 453 29,000 -1,322 Descending FlightAware ADS-B
Mon 08:03:52 PM 33.1050 -83.0900 267° West 379 436 27,200 -2,329 Descending FlightAware ADS-B
Mon 08:04:37 PM 33.0770 -83.1750 249° West 386 444 25,700 -1,440 Descending FlightAware ADS-B
Mon 08:05:32 PM 33.0200 -83.2610 232° Southwest 377 434 24,800 -2,325 Descending FlightAware ADS-B
Mon 08:05:57 PM 33.0090 -83.3050 253° West 384 442 22,600 -1,886 Descending FlightAware ADS-B
Mon 08:06:42 PM 32.9960 -83.3900 260° West 384 442 22,600 -2,743 Level FlightAware ADS-B
Mon 08:07:07 PM 33.0520 -83.4510 318° Northwest 389 448 19,400 -4,200 Descending FlightAware ADS-B
Mon 08:07:52 PM 33.0900 -83.5330 299° West 376 433 17,700 -2,259 Descending FlightAware ADS-B
Mon 08:08:32 PM 33.1230 -83.6030 299° West 371 427 16,200 -2,188 Descending FlightAware ADS-B
Mon 08:09:17 PM 33.1600 -83.6840 299° West 364 419 14,600 -1,694 Descending FlightAware ADS-B
Mon 08:09:57 PM 33.1920 -83.7520 299° West 355 409 13,800 -600 Descending FlightAware ADS-B
Mon 08:10:37 PM 33.2240 -83.8230 298° West 354 407 13,800  Level FlightAware ADS-B
Mon 08:11:17 PM 33.2570 -83.8840 303° West 359 413 13,800 -503 Level FlightAware ADS-B
Mon 08:13:12 PM 33.3790 -84.0560 310° West 350 403 12,500 -503 Descending FlightAware ADS-B
Mon 08:13:52 PM 33.4120 -84.1080 307° West 350 403 12,500 -300 Level FlightAware ADS-B
Mon 08:15:32 PM 33.5170 -84.2650 309° West 244 281 11,800 -414 Descending FlightAware ADS-B
Mon 08:16:17 PM 33.5440 -84.3150 303° West 235 270 11,500 -918 Descending FlightAware ADS-B
Mon 08:16:57 PM 33.5450 -84.3650 271° West 234 269 10,500 -1,629 Descending FlightAware ADS-B
Mon 08:17:27 PM 33.5450 -84.4030 270° West 233 268 9,600 -1,745 Descending FlightAware ADS-B
Mon 08:17:52 PM 33.5450 -84.4370 270° West 236 272 8,900 -1,629 Descending FlightAware ADS-B
Mon 08:18:37 PM 33.5450 -84.4910 270° West 239 275 7,700 -1,600 Descending FlightAware ADS-B
Mon 08:18:52 PM 33.5450 -84.5140 270° West 237 273 7,300 -1,200 Descending FlightAware ADS-B
Mon 08:19:17 PM 33.5450 -84.5420 270° West 234 269 6,900 -1,320 Descending FlightAware ADS-B
Mon 08:19:42 PM 33.5450 -84.5750 270° West 231 266 6,200 -840 Descending FlightAware ADS-B
Mon 08:20:07 PM 33.5450 -84.6060 270° West 231 266 6,200 -824 Level FlightAware ADS-B
Mon 08:23:57 PM 33.6200 -84.5920 North 231 266 2,700 -969 Descending FlightAware ADS-B
Mon 08:24:27 PM 33.6200 -84.5190 90° East 141 162 2,000 -1,200 Descending FlightAware ADS-B
Mon 08:24:57 PM 33.6200 -84.4920 90° East 138 159 1,500 -840 Descending FlightAware ADS-B
Mon 08:25:17 PM 33.6200 -84.4790 90° East 136 157 1,300 -429 Descending FlightAware ADS-B
Mon 08:26:07 PM 33.6200 -84.4420 90° East 140 161 1,000 -360 Descending FlightAware ADS-B
Mon 08:32:00 PM 33.6333 -84.4167 64° Northeast  Level FlightAware Approximate
Mon 08:33:00 PM 33.6367 -84.4279 64° Northeast  Level Estimated
Mon 08:34:00 PM 33.6367 -84.4279 64° Northeast  Level Estimated

Login

Don't have an account? Register now (free) for customized features, flight alerts, and more!